createdAt,value
2019-05-11T00:00:09.831Z,7.10
2019-05-11T00:02:40.191Z,8.53
2019-05-11T00:05:12.774Z,7.93
2019-05-11T00:07:43.144Z,7.73
2019-05-11T00:10:13.835Z,7.00
2019-05-11T00:12:44.463Z,7.60
2019-05-11T00:15:14.845Z,6.90
2019-05-11T00:17:45.573Z,7.40
2019-05-11T00:20:15.928Z,7.40
2019-05-11T00:22:46.292Z,7.07
2019-05-11T00:25:16.915Z,7.03
2019-05-11T00:27:47.670Z,8.30
2019-05-11T00:30:18.039Z,7.10
2019-05-11T00:32:48.720Z,8.03
2019-05-11T00:35:19.660Z,7.10
2019-05-11T00:37:50.024Z,7.37
2019-05-11T00:40:20.748Z,7.10
2019-05-11T00:42:51.536Z,7.80
2019-05-11T00:45:21.902Z,7.93
2019-05-11T00:47:52.262Z,8.20
2019-05-11T00:50:37.580Z,7.77
2019-05-11T00:52:55.010Z,7.33
2019-05-11T00:55:25.668Z,8.43
2019-05-11T00:57:56.008Z,8.27
2019-05-11T01:00:26.730Z,7.10
2019-05-11T01:02:57.092Z,8.60
2019-05-11T01:05:27.495Z,8.23
2019-05-11T01:07:58.227Z,8.07
2019-05-11T01:10:41.517Z,8.20
2019-05-11T01:13:01.015Z,8.40
2019-05-11T01:15:31.722Z,8.80
2019-05-11T01:18:02.520Z,9.03
2019-05-11T01:20:32.886Z,8.47
2019-05-11T01:23:03.321Z,9.00
2019-05-11T01:25:34.066Z,9.57
2019-05-11T01:28:05.123Z,9.03
2019-05-11T01:30:38.745Z,9.30
2019-05-11T01:33:09.127Z,8.90
2019-05-11T01:35:39.746Z,9.57
2019-05-11T01:38:10.128Z,10.50
2019-05-11T01:40:40.519Z,10.40
2019-05-11T01:43:10.876Z,10.83
2019-05-11T01:45:41.267Z,11.50
2019-05-11T01:48:11.902Z,11.90
2019-05-11T01:50:43.007Z,13.73
2019-05-11T01:53:13.783Z,13.03
2019-05-11T01:55:44.438Z,11.97
2019-05-11T01:58:15.075Z,10.60
2019-05-11T02:00:45.989Z,10.30
2019-05-11T02:03:16.735Z,10.37
2019-05-11T02:05:47.101Z,10.20
2019-05-11T02:08:36.862Z,10.87
2019-05-11T02:11:15.515Z,10.77
2019-05-11T02:13:39.976Z,10.08
2019-05-11T02:16:10.975Z,10.83
2019-05-11T02:18:41.376Z,11.13
2019-05-11T02:21:12.405Z,11.37
2019-05-11T02:23:42.750Z,11.67
2019-05-11T02:26:13.153Z,13.40
2019-05-11T02:28:43.532Z,14.07
2019-05-11T02:31:13.924Z,12.37
2019-05-11T02:33:44.265Z,12.10
2019-05-11T02:36:14.669Z,12.00
2019-05-11T02:38:45.014Z,11.73
2019-05-11T02:41:33.309Z,13.67
2019-05-11T02:43:48.097Z,11.30
2019-05-11T02:46:18.770Z,14.03
2019-05-11T02:48:49.140Z,15.30
2019-05-11T02:51:19.899Z,12.28
2019-05-11T02:53:51.400Z,13.93
2019-05-11T02:56:22.169Z,14.00
2019-05-11T02:58:53.134Z,11.90
2019-05-11T03:01:23.467Z,11.13
2019-05-11T03:03:54.186Z,11.20
2019-05-11T03:06:24.556Z,11.43
2019-05-11T03:09:14.858Z,11.23
2019-05-11T03:11:55.536Z,11.25
2019-05-11T03:14:18.699Z,11.28
2019-05-11T03:16:51.537Z,11.60
2019-05-11T03:19:22.566Z,10.98
2019-05-11T03:21:53.301Z,11.70
2019-05-11T03:24:24.261Z,10.00
2019-05-11T03:26:54.670Z,10.63
2019-05-11T03:29:26.024Z,10.77
2019-05-11T03:31:56.505Z,10.37
2019-05-11T03:34:27.180Z,10.23
2019-05-11T03:36:57.932Z,10.87
2019-05-11T03:39:28.759Z,10.30
2019-05-11T03:42:14.087Z,10.10
2019-05-11T03:44:31.205Z,10.72
2019-05-11T03:47:01.652Z,10.17
2019-05-11T03:49:32.280Z,12.45
2019-05-11T03:52:02.949Z,11.07
2019-05-11T03:54:33.324Z,10.10
2019-05-11T03:57:03.713Z,11.57
2019-05-11T03:59:34.485Z,10.90
2019-05-11T04:02:04.872Z,11.13
2019-05-11T04:04:35.218Z,10.32
2019-05-11T04:07:05.936Z,10.63
2019-05-11T04:09:36.360Z,10.10
2019-05-11T04:12:07.107Z,10.58
2019-05-11T04:14:48.031Z,11.30
2019-05-11T04:17:20.351Z,10.37
2019-05-11T04:19:51.983Z,10.23
2019-05-11T04:22:22.626Z,10.40
2019-05-11T04:24:53.025Z,10.53
2019-05-11T04:27:23.357Z,9.80
2019-05-11T04:29:53.803Z,10.87
2019-05-11T04:32:24.560Z,10.13
2019-05-11T04:34:55.337Z,8.97
2019-05-11T04:37:26.049Z,8.07
2019-05-11T04:39:57.491Z,9.70
2019-05-11T04:42:28.321Z,9.03
2019-05-11T04:44:59.392Z,9.10
2019-05-11T04:47:29.736Z,9.40
2019-05-11T04:50:00.794Z,9.07
2019-05-11T04:52:31.529Z,8.40
2019-05-11T04:55:02.421Z,8.70
2019-05-11T04:57:32.828Z,9.03
2019-05-11T05:00:22.623Z,8.30
2019-05-11T05:02:52.975Z,8.40
2019-05-11T05:05:23.349Z,7.50
2019-05-11T05:08:07.431Z,7.90
2019-05-11T05:10:26.164Z,7.30
2019-05-11T05:13:09.607Z,6.20
2019-05-11T05:15:28.907Z,6.30
2019-05-11T05:17:59.275Z,6.17
2019-05-11T05:20:29.638Z,6.50
2019-05-11T05:23:00.033Z,6.67
2019-05-11T05:25:31.140Z,5.63
2019-05-11T05:28:04.350Z,5.43
2019-05-11T05:30:35.110Z,5.70
2019-05-11T05:33:05.833Z,4.97
2019-05-11T05:35:36.210Z,5.33
2019-05-11T05:38:06.866Z,6.00
2019-05-11T05:40:37.234Z,5.10
2019-05-11T05:43:08.043Z,4.17
2019-05-11T05:45:38.758Z,4.27
2019-05-11T05:48:09.166Z,4.23
2019-05-11T05:50:39.521Z,4.43
2019-05-11T05:53:09.993Z,4.03
2019-05-11T05:55:40.879Z,3.23
2019-05-11T05:58:11.673Z,3.80
2019-05-11T06:01:01.498Z,3.60
2019-05-11T06:03:32.243Z,3.93
2019-05-11T06:06:03.011Z,3.90
2019-05-11T06:08:33.354Z,4.10
2019-05-11T06:11:04.146Z,4.17
2019-05-11T06:13:44.478Z,3.47
2019-05-11T06:16:07.242Z,3.80
2019-05-11T06:18:37.873Z,3.83
2019-05-11T06:21:08.273Z,3.57
2019-05-11T06:23:39.355Z,3.33
2019-05-11T06:26:09.965Z,3.80
2019-05-11T06:28:40.360Z,4.20
2019-05-11T06:31:11.200Z,3.53
2019-05-11T06:33:41.573Z,3.43
2019-05-11T06:36:12.634Z,3.30
2019-05-11T06:38:43.333Z,3.47
2019-05-11T06:41:13.678Z,3.40
2019-05-11T06:43:59.566Z,3.47
2019-05-11T06:46:16.240Z,2.73
2019-05-11T06:48:46.602Z,3.03
2019-05-11T06:51:16.967Z,3.07
2019-05-11T06:53:47.814Z,2.70
2019-05-11T06:56:18.582Z,3.00
2019-05-11T06:58:49.215Z,3.00
2019-05-11T07:01:19.580Z,2.13
2019-05-11T07:03:49.915Z,2.00
2019-05-11T07:06:20.298Z,1.90
2019-05-11T07:08:51.362Z,2.03
2019-05-11T07:11:21.743Z,2.13
2019-05-11T07:13:52.083Z,2.30
2019-05-11T07:16:22.477Z,3.00
2019-05-11T07:18:53.499Z,2.60
2019-05-11T07:21:23.846Z,2.50
2019-05-11T07:23:54.844Z,3.00
2019-05-11T07:26:25.217Z,3.20
2019-05-11T07:28:56.063Z,3.23
2019-05-11T07:31:26.830Z,3.60
2019-05-11T07:33:58.707Z,2.90
2019-05-11T07:36:29.926Z,3.03
2019-05-11T07:39:00.869Z,2.80
2019-05-11T07:41:31.230Z,2.80
2019-05-11T07:44:01.571Z,2.70
2019-05-11T07:46:32.324Z,3.43
2019-05-11T07:49:03.295Z,2.33
2019-05-11T07:51:35.640Z,3.07
2019-05-11T07:54:08.451Z,2.50
2019-05-11T07:56:39.213Z,3.43
2019-05-11T07:59:10.393Z,3.00
2019-05-11T08:01:41.406Z,3.10
2019-05-11T08:04:11.758Z,2.97
2019-05-11T08:06:42.126Z,2.70
2019-05-11T08:09:12.493Z,2.40
2019-05-11T08:11:43.202Z,3.00
2019-05-11T08:14:13.969Z,2.60
2019-05-11T08:16:44.393Z,2.13
2019-05-11T08:19:14.791Z,2.90
2019-05-11T08:21:45.169Z,2.27
2019-05-11T08:24:18.902Z,2.93
2019-05-11T08:26:49.288Z,2.57
2019-05-11T08:29:20.075Z,2.17
2019-05-11T08:31:51.068Z,2.60
2019-05-11T08:34:21.446Z,3.17
2019-05-11T08:36:51.865Z,2.50
2019-05-11T08:39:22.242Z,2.33
2019-05-11T08:41:53.018Z,3.00
2019-05-11T08:44:23.395Z,2.53
2019-05-11T08:46:53.802Z,2.23
2019-05-11T08:49:24.504Z,2.77
2019-05-11T08:51:55.163Z,2.30
2019-05-11T08:54:25.539Z,2.50
2019-05-11T08:56:58.695Z,2.20
2019-05-11T08:59:28.987Z,2.30
2019-05-11T09:01:59.761Z,2.97
2019-05-11T09:04:30.158Z,2.70
2019-05-11T09:07:00.524Z,2.40
2019-05-11T09:09:31.874Z,2.57
2019-05-11T09:12:02.272Z,2.43
2019-05-11T09:14:33.269Z,2.00
2019-05-11T09:17:03.679Z,2.70
2019-05-11T09:19:34.024Z,1.77
2019-05-11T09:22:04.398Z,2.60
2019-05-11T09:24:34.761Z,2.53
2019-05-11T09:27:07.654Z,1.63
2019-05-11T09:29:38.712Z,2.77
2019-05-11T09:32:09.238Z,2.60
2019-05-11T09:34:40.014Z,1.90
2019-05-11T09:37:10.382Z,3.10
2019-05-11T09:39:41.214Z,2.83
2019-05-11T09:42:11.597Z,3.00
2019-05-11T09:44:42.383Z,2.00
2019-05-11T09:47:12.817Z,1.90
2019-05-11T09:49:47.824Z,1.90
2019-05-11T09:52:18.215Z,2.10
2019-05-11T09:54:48.784Z,2.20
2019-05-11T09:57:19.715Z,1.73
2019-05-11T09:59:50.078Z,2.57
2019-05-11T10:02:21.289Z,2.20
2019-05-11T10:04:52.579Z,1.60
2019-05-11T10:07:23.307Z,1.83
2019-05-11T10:09:54.268Z,2.33
2019-05-11T10:12:24.879Z,2.67
2019-05-11T10:14:55.276Z,2.30
2019-05-11T10:17:25.883Z,2.10
2019-05-11T10:19:58.279Z,2.23
2019-05-11T10:22:29.157Z,2.00
2019-05-11T10:24:59.932Z,2.53
2019-05-11T10:27:30.425Z,2.50
2019-05-11T10:30:01.546Z,2.57
2019-05-11T10:32:31.909Z,2.57
2019-05-11T10:35:02.680Z,3.13
2019-05-11T10:37:33.014Z,2.23
2019-05-11T10:40:04.172Z,2.40
2019-05-11T10:42:34.525Z,2.87
2019-05-11T10:45:09.150Z,2.50
2019-05-11T10:47:39.404Z,2.13
2019-05-11T10:50:10.173Z,2.30
2019-05-11T10:52:41.322Z,3.43
2019-05-11T10:55:11.961Z,9.63
2019-05-11T10:57:42.690Z,4.00
2019-05-11T11:00:13.508Z,26.83
2019-05-11T11:02:44.142Z,3.20
2019-05-11T11:05:18.696Z,5.27
2019-05-11T11:07:49.289Z,3.30
2019-05-11T11:10:20.397Z,3.10
2019-05-11T11:12:51.092Z,4.27
2019-05-11T11:15:22.155Z,2.97
2019-05-11T11:17:52.902Z,2.83
2019-05-11T11:20:23.250Z,6.23
2019-05-11T11:22:53.659Z,3.10
2019-05-11T11:25:24.331Z,5.83
2019-05-11T11:27:57.698Z,3.70
2019-05-11T11:30:28.557Z,4.50
2019-05-11T11:32:59.573Z,2.93
2019-05-11T11:35:29.957Z,3.10
2019-05-11T11:38:00.696Z,3.47
2019-05-11T11:40:31.354Z,3.00
2019-05-11T11:43:02.080Z,3.10
2019-05-11T11:45:33.055Z,2.60
2019-05-11T11:48:03.757Z,3.40
2019-05-11T11:50:34.481Z,2.90
2019-05-11T11:53:04.859Z,4.57
2019-05-11T11:55:35.195Z,4.03
2019-05-11T11:58:05.534Z,2.80
2019-05-11T12:00:35.897Z,3.90
2019-05-11T12:03:08.005Z,2.97
2019-05-11T12:05:38.779Z,2.93
2019-05-11T12:08:09.439Z,3.00
2019-05-11T12:10:39.835Z,2.97
2019-05-11T12:13:10.205Z,2.70
2019-05-11T12:15:40.595Z,3.43
2019-05-11T12:18:11.897Z,3.60
2019-05-11T12:20:42.523Z,3.40
2019-05-11T12:23:13.257Z,3.10
2019-05-11T12:25:43.622Z,3.60
2019-05-11T12:28:14.178Z,3.37
2019-05-11T12:30:44.848Z,3.40
2019-05-11T12:33:15.700Z,3.47
2019-05-11T12:35:48.128Z,3.80
2019-05-11T12:38:19.026Z,4.23
2019-05-11T12:40:49.406Z,4.00
2019-05-11T12:43:22.485Z,3.47
2019-05-11T12:45:52.235Z,3.20
2019-05-11T12:48:22.575Z,3.10
2019-05-11T12:50:52.957Z,3.23
2019-05-11T12:53:23.758Z,3.07
2019-05-11T12:55:54.117Z,3.13
2019-05-11T12:58:24.820Z,3.20
2019-05-11T13:00:55.485Z,2.50
2019-05-11T13:03:27.839Z,2.58
2019-05-11T13:05:58.659Z,2.80
2019-05-11T13:08:28.998Z,2.60
2019-05-11T13:10:59.332Z,3.07
2019-05-11T13:13:29.699Z,3.40
2019-05-11T13:16:00.069Z,3.67
2019-05-11T13:18:31.016Z,3.27
2019-05-11T13:21:01.403Z,2.70
2019-05-11T13:23:32.115Z,2.60
2019-05-11T13:26:02.809Z,3.67
2019-05-11T13:28:33.167Z,3.47
2019-05-11T13:31:04.183Z,3.63
2019-05-11T13:33:35.266Z,3.77
2019-05-11T13:36:05.609Z,5.93
2019-05-11T13:38:36.180Z,5.17
2019-05-11T13:41:08.008Z,4.00
2019-05-11T13:43:38.707Z,3.70
2019-05-11T13:46:09.415Z,3.20
2019-05-11T13:48:40.049Z,3.60
2019-05-11T13:51:10.893Z,3.77
2019-05-11T13:53:42.261Z,3.50
2019-05-11T13:56:13.128Z,3.20
2019-05-11T13:58:43.804Z,3.93
2019-05-11T14:01:14.211Z,4.27
2019-05-11T14:03:44.850Z,4.37
2019-05-11T14:06:15.509Z,3.80
2019-05-11T14:08:47.569Z,4.10
2019-05-11T14:11:18.496Z,10.80
2019-05-11T14:13:49.182Z,8.37
2019-05-11T14:16:19.579Z,6.53
2019-05-11T14:18:49.951Z,4.33
2019-05-11T14:21:20.590Z,3.73
2019-05-11T14:23:51.323Z,3.97
2019-05-11T14:26:21.718Z,5.03
2019-05-11T14:28:52.453Z,4.30
2019-05-11T14:31:23.618Z,4.90
2019-05-11T14:33:53.963Z,4.90
2019-05-11T14:36:24.354Z,4.57
2019-05-11T14:38:57.678Z,4.70
2019-05-11T14:41:28.540Z,5.90
2019-05-11T14:43:59.446Z,5.40
2019-05-11T14:46:32.697Z,5.10
2019-05-11T14:49:03.733Z,5.00
2019-05-11T14:51:34.450Z,5.07
2019-05-11T14:54:05.106Z,5.40
2019-05-11T14:56:38.128Z,5.47
2019-05-11T14:59:09.125Z,5.20
2019-05-11T15:01:39.618Z,5.30
2019-05-11T15:04:09.966Z,5.50
2019-05-11T15:06:40.364Z,5.47
2019-05-11T15:09:10.704Z,4.37
2019-05-11T15:11:41.624Z,5.57
2019-05-11T15:14:12.304Z,5.70
2019-05-11T15:16:43.210Z,4.33
2019-05-11T15:19:13.578Z,4.67
2019-05-11T15:21:44.640Z,4.17
2019-05-11T15:24:15.434Z,4.07
2019-05-11T15:26:48.431Z,4.10
2019-05-11T15:29:18.611Z,5.30
2019-05-11T15:31:49.135Z,4.53
2019-05-11T15:34:19.471Z,4.20
2019-05-11T15:36:49.860Z,4.10
2019-05-11T15:39:20.231Z,4.80
2019-05-11T15:41:50.667Z,4.17
2019-05-11T15:44:21.412Z,4.37
2019-05-11T15:46:51.757Z,3.97
2019-05-11T15:49:22.469Z,4.27
2019-05-11T15:51:53.180Z,3.90
2019-05-11T15:54:23.923Z,6.07
2019-05-11T15:56:59.700Z,4.80
2019-05-11T15:59:30.658Z,4.90
2019-05-11T16:02:00.476Z,3.40
2019-05-11T16:04:31.137Z,5.55
2019-05-11T16:07:20.911Z,5.00
2019-05-11T16:09:51.672Z,4.53
2019-05-11T16:12:22.764Z,4.40
2019-05-11T16:14:53.181Z,4.77
2019-05-11T16:17:23.524Z,5.43
2019-05-11T16:19:54.212Z,4.73
2019-05-11T16:22:24.922Z,5.67
2019-05-11T16:24:57.959Z,4.53
2019-05-11T16:27:28.494Z,5.43
2019-05-11T16:29:59.044Z,5.93
2019-05-11T16:32:30.440Z,6.83
2019-05-11T16:35:01.090Z,8.27
2019-05-11T16:37:31.813Z,7.63
2019-05-11T16:40:02.159Z,7.60
2019-05-11T16:42:32.922Z,5.97
2019-05-11T16:45:09.995Z,5.17
2019-05-11T16:47:40.722Z,5.00
2019-05-11T16:50:11.564Z,4.83
2019-05-11T16:52:42.593Z,4.87
2019-05-11T16:55:12.996Z,4.70
2019-05-11T16:58:03.136Z,4.67
2019-05-11T17:00:34.001Z,4.50
2019-05-11T17:03:04.711Z,5.07
2019-05-11T17:05:38.094Z,5.97
2019-05-11T17:08:08.135Z,5.50
2019-05-11T17:10:39.053Z,5.10
2019-05-11T17:13:09.990Z,5.53
2019-05-11T17:15:41.035Z,5.80
2019-05-11T17:18:12.137Z,5.50
2019-05-11T17:20:43.082Z,6.50
2019-05-11T17:23:14.087Z,6.03
2019-05-11T17:25:45.123Z,5.73
2019-05-11T17:28:15.737Z,5.67
2019-05-11T17:30:48.100Z,5.00
2019-05-11T17:33:18.193Z,7.20
2019-05-11T17:35:48.875Z,6.67
2019-05-11T17:38:19.486Z,6.10
2019-05-11T17:40:49.826Z,6.50
2019-05-11T17:43:20.506Z,7.93
2019-05-11T17:45:52.499Z,5.90
2019-05-11T17:48:22.893Z,6.57
2019-05-11T17:50:53.589Z,9.30
2019-05-11T17:53:24.263Z,48.65
2019-05-11T17:55:54.617Z,6.80
2019-05-11T17:58:25.679Z,6.67
2019-05-11T18:00:58.796Z,6.55
2019-05-11T18:03:28.991Z,5.93
2019-05-11T18:05:59.699Z,6.20
2019-05-11T18:08:30.950Z,6.17
2019-05-11T18:11:01.775Z,5.87
2019-05-11T18:13:32.554Z,4.93
2019-05-11T18:16:02.980Z,5.60
2019-05-11T18:18:33.709Z,5.67
2019-05-11T18:21:04.666Z,6.30
2019-05-11T18:23:35.313Z,5.03
2019-05-11T18:26:06.029Z,5.57
2019-05-11T18:28:37.821Z,5.10
2019-05-11T18:31:08.790Z,5.53
2019-05-11T18:33:39.536Z,5.50
2019-05-11T18:36:10.278Z,6.40
2019-05-11T18:38:40.649Z,5.83
2019-05-11T18:41:12.094Z,6.00
2019-05-11T18:43:42.912Z,6.10
2019-05-11T18:46:13.299Z,6.07
2019-05-11T18:48:43.670Z,5.30
2019-05-11T18:51:14.627Z,5.87
2019-05-11T18:53:48.246Z,4.83
2019-05-11T18:56:18.532Z,4.80
2019-05-11T18:58:49.151Z,4.60
2019-05-11T19:01:19.850Z,5.43
2019-05-11T19:03:50.531Z,4.53
2019-05-11T19:06:21.434Z,5.30
2019-05-11T19:08:52.138Z,5.17
2019-05-11T19:11:22.975Z,4.63
2019-05-11T19:13:54.137Z,4.97
2019-05-11T19:16:24.470Z,5.53
2019-05-11T19:18:55.236Z,4.93
2019-05-11T19:21:25.592Z,5.93
2019-05-11T19:23:58.026Z,5.73
2019-05-11T19:26:28.765Z,5.07
2019-05-11T19:29:00.709Z,5.30
2019-05-11T19:31:31.570Z,4.50
2019-05-11T19:34:01.935Z,5.17
2019-05-11T19:36:32.371Z,5.10
2019-05-11T19:39:04.747Z,4.30
2019-05-11T19:41:35.082Z,4.20
2019-05-11T19:44:08.394Z,4.30
2019-05-11T19:46:38.937Z,4.50
2019-05-11T19:49:09.287Z,4.73
2019-05-11T19:51:42.585Z,4.80
2019-05-11T19:54:12.437Z,6.10
2019-05-11T19:56:43.204Z,4.50
2019-05-11T19:59:13.972Z,3.90
2019-05-11T20:01:44.719Z,3.67
2019-05-11T20:04:15.537Z,3.17
2019-05-11T20:06:47.943Z,3.60
2019-05-11T20:09:19.284Z,3.80
2019-05-11T20:11:49.654Z,3.50
2019-05-11T20:14:20.320Z,3.40
2019-05-11T20:16:51.469Z,2.60
2019-05-11T20:19:22.201Z,2.80
2019-05-11T20:21:53.039Z,3.10
2019-05-11T20:24:25.187Z,3.23
2019-05-11T20:26:55.614Z,2.57
2019-05-11T20:29:27.788Z,3.03
2019-05-11T20:31:58.618Z,2.97
2019-05-11T20:34:48.411Z,3.23
2019-05-11T20:37:19.166Z,3.67
2019-05-11T20:39:50.181Z,2.33
2019-05-11T20:42:20.578Z,2.57
2019-05-11T20:44:50.953Z,3.40
2019-05-11T20:47:21.725Z,2.63
2019-05-11T20:49:52.520Z,2.70
2019-05-11T20:52:23.252Z,2.90
2019-05-11T20:54:54.280Z,2.77
2019-05-11T20:57:25.007Z,2.63
2019-05-11T20:59:57.576Z,2.20
2019-05-11T21:02:28.825Z,2.90
2019-05-11T21:04:59.649Z,3.60
2019-05-11T21:07:30.359Z,2.57
2019-05-11T21:10:01.563Z,2.50
2019-05-11T21:12:32.302Z,2.30
2019-05-11T21:15:03.248Z,2.60
2019-05-11T21:17:33.887Z,2.97
2019-05-11T21:20:07.631Z,2.10
2019-05-11T21:22:40.478Z,2.80
2019-05-11T21:25:11.131Z,2.63
2019-05-11T21:27:42.089Z,2.97
2019-05-11T21:30:13.109Z,2.30
2019-05-11T21:32:43.905Z,1.90
2019-05-11T21:35:14.549Z,2.60
2019-05-11T21:37:45.258Z,2.37
2019-05-11T21:40:15.897Z,1.70
2019-05-11T21:42:47.612Z,1.87
2019-05-11T21:45:18.418Z,2.63
2019-05-11T21:47:49.574Z,2.10
2019-05-11T21:50:20.477Z,2.13
2019-05-11T21:52:54.187Z,2.50
2019-05-11T21:55:23.196Z,1.73
2019-05-11T21:57:53.576Z,1.83
2019-05-11T22:00:27.960Z,2.47
2019-05-11T22:02:58.315Z,1.90
2019-05-11T22:05:29.182Z,2.10
2019-05-11T22:07:59.907Z,1.67
2019-05-11T22:10:30.272Z,1.70
2019-05-11T22:13:00.642Z,2.20
2019-05-11T22:15:50.819Z,2.20
2019-05-11T22:18:30.958Z,1.60
2019-05-11T22:20:54.951Z,2.17
2019-05-11T22:23:25.582Z,1.53
2019-05-11T22:25:58.555Z,1.70
2019-05-11T22:28:28.690Z,1.20
2019-05-11T22:30:59.066Z,1.67
2019-05-11T22:33:29.407Z,1.87
2019-05-11T22:35:59.771Z,1.60
2019-05-11T22:38:30.390Z,1.10
2019-05-11T22:41:01.238Z,1.20
2019-05-11T22:43:32.155Z,1.17
2019-05-11T22:46:02.527Z,1.10
2019-05-11T22:48:33.144Z,1.40
2019-05-11T22:51:04.192Z,1.70
2019-05-11T22:53:46.451Z,1.47
2019-05-11T22:56:07.463Z,1.40
2019-05-11T22:58:38.173Z,1.13
2019-05-11T23:01:08.743Z,1.37
2019-05-11T23:03:39.477Z,1.30
2019-05-11T23:06:09.881Z,1.80
2019-05-11T23:08:40.262Z,2.20
2019-05-11T23:11:10.687Z,1.77
2019-05-11T23:14:00.482Z,1.60
2019-05-11T23:16:31.554Z,1.20
2019-05-11T23:19:02.325Z,1.50
2019-05-11T23:21:33.015Z,1.40
2019-05-11T23:24:03.632Z,1.67
2019-05-11T23:26:34.023Z,1.40
2019-05-11T23:29:04.810Z,1.90
2019-05-11T23:31:35.229Z,1.60
2019-05-11T23:34:07.957Z,1.50
2019-05-11T23:36:38.456Z,1.37
2019-05-11T23:39:09.462Z,1.33
2019-05-11T23:41:40.196Z,1.40
2019-05-11T23:44:10.591Z,1.90
2019-05-11T23:46:41.286Z,1.30
2019-05-11T23:49:11.630Z,1.37
2019-05-11T23:51:42.385Z,1.77
2019-05-11T23:54:13.204Z,1.40
2019-05-11T23:56:43.950Z,1.47
2019-05-11T23:59:14.312Z,1.37
